createdAt,value
2018-10-15T00:01:10.750Z,18.80
2018-10-15T00:03:38.831Z,18.80
2018-10-15T00:06:06.939Z,18.80
2018-10-15T00:08:35.059Z,18.80
2018-10-15T00:11:03.272Z,18.80
2018-10-15T00:13:31.357Z,18.80
2018-10-15T00:15:59.416Z,18.80
2018-10-15T00:18:27.524Z,18.80
2018-10-15T00:20:55.656Z,18.80
2018-10-15T00:23:24.011Z,18.80
2018-10-15T00:25:52.107Z,18.80
2018-10-15T00:28:20.232Z,18.80
2018-10-15T00:30:48.319Z,18.80
2018-10-15T00:33:16.440Z,18.80
2018-10-15T00:35:44.513Z,18.80
2018-10-15T00:38:12.623Z,18.70
2018-10-15T00:40:40.692Z,18.80
2018-10-15T00:43:08.779Z,18.70
2018-10-15T00:45:36.882Z,18.80
2018-10-15T00:48:05.457Z,18.70
2018-10-15T00:50:33.588Z,18.70
2018-10-15T00:53:01.719Z,18.70
2018-10-15T00:55:29.787Z,18.70
2018-10-15T00:57:57.871Z,18.70
2018-10-15T01:00:25.981Z,18.70
2018-10-15T01:02:54.065Z,18.70
2018-10-15T01:05:22.147Z,18.70
2018-10-15T01:07:50.250Z,18.70
2018-10-15T01:10:18.343Z,18.60
2018-10-15T01:12:46.447Z,18.60
2018-10-15T01:15:14.575Z,18.60
2018-10-15T01:17:42.702Z,18.70
2018-10-15T01:20:12.356Z,18.70
2018-10-15T01:22:40.459Z,18.70
2018-10-15T01:25:09.514Z,18.70
2018-10-15T01:27:37.599Z,18.70
2018-10-15T01:30:06.336Z,18.70
2018-10-15T01:32:34.414Z,18.60
2018-10-15T01:35:02.535Z,18.60
2018-10-15T01:37:30.634Z,18.60
2018-10-15T01:39:58.726Z,18.60
2018-10-15T01:42:26.816Z,18.50
2018-10-15T01:44:54.899Z,18.50
2018-10-15T01:47:23.027Z,18.50
2018-10-15T01:49:51.440Z,18.40
2018-10-15T01:52:19.527Z,18.40
2018-10-15T01:54:47.629Z,18.40
2018-10-15T01:57:15.736Z,18.30
2018-10-15T01:59:43.851Z,18.30
2018-10-15T02:02:11.970Z,18.30
2018-10-15T02:04:40.104Z,18.30
2018-10-15T02:07:08.253Z,18.20
2018-10-15T02:09:36.423Z,18.20
2018-10-15T02:12:04.586Z,18.20
2018-10-15T02:14:32.683Z,18.20
2018-10-15T02:17:00.774Z,18.20
2018-10-15T02:19:28.846Z,18.10
2018-10-15T02:21:56.954Z,18.10
2018-10-15T02:24:25.065Z,18.10
2018-10-15T02:26:53.161Z,18.10
2018-10-15T02:29:21.233Z,18.10
2018-10-15T02:31:49.380Z,18.10
2018-10-15T02:34:17.480Z,18.10
2018-10-15T02:36:45.550Z,18.10
2018-10-15T02:39:13.957Z,18.10
2018-10-15T02:41:42.415Z,18.10
2018-10-15T02:44:10.558Z,17.90
2018-10-15T02:46:39.058Z,17.90
2018-10-15T02:49:07.442Z,17.90
2018-10-15T02:51:35.570Z,18.00
2018-10-15T02:54:03.636Z,18.00
2018-10-15T02:56:31.743Z,18.00
2018-10-15T02:58:59.835Z,18.00
2018-10-15T03:01:27.972Z,18.00
2018-10-15T03:03:56.058Z,17.90
2018-10-15T03:06:24.181Z,17.90
2018-10-15T03:08:52.287Z,17.90
2018-10-15T03:11:20.396Z,17.90
2018-10-15T03:13:48.491Z,17.90
2018-10-15T03:16:16.601Z,17.80
2018-10-15T03:18:44.675Z,17.80
2018-10-15T03:21:12.771Z,17.80
2018-10-15T03:23:40.863Z,17.80
2018-10-15T03:26:08.968Z,17.80
2018-10-15T03:28:37.059Z,17.70
2018-10-15T03:31:05.339Z,17.70
2018-10-15T03:33:33.438Z,17.60
2018-10-15T03:36:01.528Z,17.60
2018-10-15T03:38:30.300Z,17.60
2018-10-15T03:40:59.052Z,17.60
2018-10-15T03:43:27.126Z,17.60
2018-10-15T03:45:55.222Z,17.60
2018-10-15T03:48:23.352Z,17.60
2018-10-15T03:50:51.423Z,17.60
2018-10-15T03:53:19.556Z,17.50
2018-10-15T03:55:47.683Z,17.50
2018-10-15T03:58:15.822Z,17.50
2018-10-15T04:00:43.930Z,17.50
2018-10-15T04:03:12.012Z,17.50
2018-10-15T04:05:40.128Z,17.40
2018-10-15T04:08:08.295Z,17.40
2018-10-15T04:10:36.385Z,17.40
2018-10-15T04:13:04.650Z,17.40
2018-10-15T04:15:32.776Z,17.40
2018-10-15T04:18:00.916Z,17.40
2018-10-15T04:20:29.061Z,17.40
2018-10-15T04:22:57.584Z,17.40
2018-10-15T04:25:25.670Z,17.30
2018-10-15T04:27:53.778Z,17.30
2018-10-15T04:30:21.883Z,17.30
2018-10-15T04:32:49.971Z,17.30
2018-10-15T04:35:18.111Z,17.30
2018-10-15T04:37:46.249Z,17.30
2018-10-15T04:40:14.283Z,17.20
2018-10-15T04:42:43.445Z,17.20
2018-10-15T04:45:12.707Z,17.20
2018-10-15T04:47:41.805Z,17.20
2018-10-15T04:50:10.091Z,17.20
2018-10-15T04:52:38.200Z,17.20
2018-10-15T04:55:06.985Z,17.10
2018-10-15T04:57:35.377Z,17.20
2018-10-15T05:00:03.495Z,17.10
2018-10-15T05:02:31.586Z,17.10
2018-10-15T05:04:59.691Z,17.10
2018-10-15T05:07:27.835Z,17.10
2018-10-15T05:09:55.961Z,17.10
2018-10-15T05:12:24.103Z,17.10
2018-10-15T05:14:52.125Z,17.10
2018-10-15T05:17:20.357Z,17.10
2018-10-15T05:19:48.568Z,17.10
2018-10-15T05:22:16.654Z,17.10
2018-10-15T05:24:44.792Z,17.10
2018-10-15T05:27:12.883Z,17.10
2018-10-15T05:29:40.983Z,17.00
2018-10-15T05:32:09.131Z,17.00
2018-10-15T05:34:37.194Z,17.00
2018-10-15T05:37:05.355Z,17.00
2018-10-15T05:39:33.431Z,17.00
2018-10-15T05:42:01.553Z,17.00
2018-10-15T05:44:29.603Z,17.00
2018-10-15T05:46:57.770Z,17.00
2018-10-15T05:49:25.829Z,17.00
2018-10-15T05:51:53.930Z,17.00
2018-10-15T05:54:22.171Z,17.00
2018-10-15T05:56:50.275Z,17.00
2018-10-15T05:59:18.428Z,17.00
2018-10-15T06:01:46.512Z,16.90
2018-10-15T06:04:14.595Z,16.90
2018-10-15T06:06:42.903Z,16.90
2018-10-15T06:09:12.853Z,16.90
2018-10-15T06:11:41.044Z,16.90
2018-10-15T06:14:10.204Z,16.90
2018-10-15T06:16:38.982Z,17.00
2018-10-15T06:19:07.127Z,17.00
2018-10-15T06:21:35.543Z,17.00
2018-10-15T06:24:03.649Z,17.00
2018-10-15T06:26:31.771Z,17.00
2018-10-15T06:28:59.892Z,17.00
2018-10-15T06:31:27.997Z,17.00
2018-10-15T06:33:56.209Z,17.00
2018-10-15T06:36:24.318Z,17.00
2018-10-15T06:38:52.648Z,17.00
2018-10-15T06:41:20.875Z,17.10
2018-10-15T06:43:48.952Z,17.10
2018-10-15T06:46:17.146Z,17.10
2018-10-15T06:48:45.143Z,17.10
2018-10-15T06:51:13.277Z,17.10
2018-10-15T06:53:41.360Z,17.10
2018-10-15T06:56:09.435Z,17.10
2018-10-15T06:58:37.632Z,17.20
2018-10-15T07:01:05.836Z,17.10
2018-10-15T07:03:34.035Z,17.10
2018-10-15T07:06:02.170Z,17.10
2018-10-15T07:08:30.283Z,17.20
2018-10-15T07:10:58.425Z,17.30
2018-10-15T07:13:26.572Z,17.30
2018-10-15T07:15:54.662Z,17.40
2018-10-15T07:18:22.790Z,17.50
2018-10-15T07:20:50.986Z,17.50
2018-10-15T07:23:19.034Z,17.60
2018-10-15T07:25:47.126Z,17.60
2018-10-15T07:28:15.552Z,17.70
2018-10-15T07:30:43.623Z,17.80
2018-10-15T07:33:11.763Z,17.80
2018-10-15T07:35:39.867Z,17.90
2018-10-15T07:38:08.020Z,18.00
2018-10-15T07:40:36.130Z,18.00
2018-10-15T07:43:04.258Z,18.10
2018-10-15T07:45:32.450Z,18.20
2018-10-15T07:48:00.553Z,18.30
2018-10-15T07:50:28.646Z,18.30
2018-10-15T07:52:56.747Z,18.40
2018-10-15T07:55:24.848Z,18.40
2018-10-15T07:57:52.984Z,18.50
2018-10-15T08:00:22.607Z,18.50
2018-10-15T08:02:51.093Z,18.60
2018-10-15T08:05:19.259Z,18.70
2018-10-15T08:07:47.856Z,18.80
2018-10-15T08:10:16.042Z,18.90
2018-10-15T08:12:44.503Z,19.00
2018-10-15T08:15:13.925Z,19.10
2018-10-15T08:17:42.521Z,19.10
2018-10-15T08:20:12.452Z,19.20
2018-10-15T08:22:41.294Z,19.30
2018-10-15T08:25:09.427Z,19.40
2018-10-15T08:27:38.460Z,19.50
2018-10-15T08:30:08.492Z,19.60
2018-10-15T08:32:36.680Z,19.60
2018-10-15T08:35:04.994Z,19.70
2018-10-15T08:37:33.104Z,19.80
2018-10-15T08:40:01.195Z,19.90
2018-10-15T08:42:29.298Z,19.90
2018-10-15T08:44:57.390Z,20.00
2018-10-15T08:47:26.386Z,20.10
2018-10-15T08:49:54.539Z,20.20
2018-10-15T08:52:22.617Z,20.20
2018-10-15T08:54:50.658Z,20.30
2018-10-15T08:57:18.739Z,20.30
2018-10-15T08:59:46.826Z,20.40
2018-10-15T09:02:14.916Z,20.50
2018-10-15T09:04:43.031Z,20.60
2018-10-15T09:07:11.144Z,20.70
2018-10-15T09:09:39.220Z,20.90
2018-10-15T09:12:07.301Z,20.90
2018-10-15T09:14:35.419Z,21.00
2018-10-15T09:17:03.491Z,21.10
2018-10-15T09:19:31.582Z,21.20
2018-10-15T09:21:59.720Z,21.30
2018-10-15T09:24:27.818Z,21.50
2018-10-15T09:26:55.994Z,21.60
2018-10-15T09:29:24.130Z,21.70
2018-10-15T09:31:52.301Z,21.80
2018-10-15T09:34:20.391Z,21.80
2018-10-15T09:36:48.575Z,21.90
2018-10-15T09:39:16.679Z,22.00
2018-10-15T09:41:44.760Z,22.10
2018-10-15T09:44:12.863Z,22.20
2018-10-15T09:46:40.985Z,22.30
2018-10-15T09:49:09.055Z,22.30
2018-10-15T09:51:37.135Z,22.40
2018-10-15T09:54:05.274Z,22.50
2018-10-15T09:56:33.439Z,22.60
2018-10-15T09:59:01.656Z,22.70
2018-10-15T10:01:34.919Z,22.80
2018-10-15T10:04:03.391Z,22.90
2018-10-15T10:06:31.480Z,23.00
2018-10-15T10:08:59.647Z,23.10
2018-10-15T10:11:27.695Z,23.10
2018-10-15T10:13:55.827Z,23.20
2018-10-15T10:16:23.972Z,23.20
2018-10-15T10:18:52.076Z,23.30
2018-10-15T10:21:20.168Z,23.40
2018-10-15T10:23:48.318Z,23.40
2018-10-15T10:26:16.429Z,23.40
2018-10-15T10:28:44.644Z,23.50
2018-10-15T10:31:12.630Z,23.50
2018-10-15T10:33:57.542Z,23.60
2018-10-15T10:36:25.628Z,23.60
2018-10-15T10:38:55.450Z,23.60
2018-10-15T10:41:23.547Z,23.70
2018-10-15T10:43:53.119Z,23.80
2018-10-15T10:46:21.243Z,23.80
2018-10-15T10:48:49.713Z,23.90
2018-10-15T10:51:22.456Z,23.90
2018-10-15T10:53:50.954Z,24.00
2018-10-15T10:56:19.043Z,24.10
2018-10-15T10:58:47.241Z,24.10
2018-10-15T11:01:15.259Z,24.20
2018-10-15T11:03:43.353Z,24.20
2018-10-15T11:06:11.437Z,24.30
2018-10-15T11:08:39.616Z,24.30
2018-10-15T11:11:07.938Z,24.40
2018-10-15T11:13:36.041Z,24.40
2018-10-15T11:16:04.135Z,24.50
2018-10-15T11:18:32.316Z,24.50
2018-10-15T11:21:00.492Z,24.50
2018-10-15T11:23:28.630Z,24.60
2018-10-15T11:25:56.758Z,24.60
2018-10-15T11:28:24.983Z,24.60
2018-10-15T11:30:53.087Z,24.70
2018-10-15T11:33:21.391Z,24.70
2018-10-15T11:35:49.750Z,24.70
2018-10-15T11:38:17.830Z,24.80
2018-10-15T11:40:46.030Z,24.90
2018-10-15T11:43:14.276Z,24.90
2018-10-15T11:45:42.295Z,25.00
2018-10-15T11:48:10.389Z,25.10
2018-10-15T11:50:38.451Z,25.10
2018-10-15T11:53:06.583Z,25.20
2018-10-15T11:55:34.699Z,25.20
2018-10-15T11:58:02.845Z,25.30
2018-10-15T12:00:30.899Z,25.30
2018-10-15T12:02:59.015Z,25.40
2018-10-15T12:05:27.103Z,25.40
2018-10-15T12:07:55.207Z,25.40
2018-10-15T12:10:23.279Z,25.50
2018-10-15T12:12:51.374Z,25.50
2018-10-15T12:15:19.474Z,25.60
2018-10-15T12:17:47.580Z,25.60
2018-10-15T12:20:15.709Z,25.70
2018-10-15T12:22:43.858Z,25.70
2018-10-15T12:25:13.389Z,25.80
2018-10-15T12:27:41.461Z,25.80
2018-10-15T12:30:10.557Z,25.90
2018-10-15T12:32:38.646Z,25.90
2018-10-15T12:35:07.915Z,25.90
2018-10-15T12:37:36.015Z,26.00
2018-10-15T12:40:04.526Z,26.10
2018-10-15T12:42:32.602Z,26.10
2018-10-15T12:45:00.712Z,26.10
2018-10-15T12:47:28.808Z,26.20
2018-10-15T12:49:56.863Z,26.20
2018-10-15T12:52:24.969Z,26.20
2018-10-15T12:54:53.082Z,26.30
2018-10-15T12:57:21.299Z,26.30
2018-10-15T12:59:49.489Z,26.40
2018-10-15T13:02:17.570Z,26.50
2018-10-15T13:04:55.804Z,26.50
2018-10-15T13:07:23.964Z,26.50
2018-10-15T13:09:52.051Z,26.60
2018-10-15T13:12:20.164Z,26.60
2018-10-15T13:14:48.282Z,26.60
2018-10-15T13:17:16.387Z,26.60
2018-10-15T13:19:44.459Z,26.70
2018-10-15T13:22:12.542Z,26.70
2018-10-15T13:24:40.638Z,26.70
2018-10-15T13:27:08.778Z,26.70
2018-10-15T13:29:36.907Z,26.80
2018-10-15T13:32:05.528Z,26.90
2018-10-15T13:34:33.658Z,26.90
2018-10-15T13:37:01.838Z,27.00
2018-10-15T13:39:29.968Z,27.00
2018-10-15T13:41:58.084Z,27.10
2018-10-15T13:44:26.275Z,27.00
2018-10-15T13:46:54.434Z,27.00
2018-10-15T13:49:22.563Z,27.00
2018-10-15T13:51:50.699Z,27.00
2018-10-15T13:54:18.819Z,27.00
2018-10-15T13:56:46.971Z,27.00
2018-10-15T13:59:15.105Z,27.00
2018-10-15T14:01:43.188Z,26.90
2018-10-15T14:04:11.283Z,26.90
2018-10-15T14:06:39.407Z,26.90
2018-10-15T14:09:08.673Z,26.90
2018-10-15T14:11:36.782Z,26.90
2018-10-15T14:14:04.921Z,26.90
2018-10-15T14:16:33.020Z,26.80
2018-10-15T14:19:01.083Z,26.80
2018-10-15T14:21:29.247Z,26.80
2018-10-15T14:23:57.469Z,26.70
2018-10-15T14:26:25.566Z,26.70
2018-10-15T14:28:53.699Z,26.70
2018-10-15T14:31:21.817Z,26.70
2018-10-15T14:33:49.972Z,26.70
2018-10-15T14:36:18.069Z,26.70
2018-10-15T14:38:46.183Z,26.70
2018-10-15T14:41:14.454Z,26.70
2018-10-15T14:43:42.553Z,26.80
2018-10-15T14:46:10.683Z,26.70
2018-10-15T14:48:38.786Z,26.80
2018-10-15T14:51:06.920Z,26.80
2018-10-15T14:53:35.031Z,26.80
2018-10-15T14:56:03.173Z,26.80
2018-10-15T14:58:31.273Z,26.80
2018-10-15T15:00:59.387Z,26.80
2018-10-15T15:03:27.486Z,26.70
2018-10-15T15:05:55.596Z,26.70
2018-10-15T15:08:23.701Z,26.70
2018-10-15T15:11:03.290Z,26.70
2018-10-15T15:13:42.788Z,26.70
2018-10-15T15:16:10.904Z,26.60
2018-10-15T15:18:39.059Z,26.50
2018-10-15T15:21:07.187Z,26.50
2018-10-15T15:23:35.278Z,26.50
2018-10-15T15:26:03.390Z,26.50
2018-10-15T15:28:31.513Z,26.50
2018-10-15T15:30:59.627Z,26.50
2018-10-15T15:33:27.731Z,26.50
2018-10-15T15:35:55.843Z,26.50
2018-10-15T15:38:23.947Z,26.50
2018-10-15T15:40:52.157Z,26.50
2018-10-15T15:43:20.308Z,26.40
2018-10-15T15:45:48.430Z,26.50
2018-10-15T15:48:16.508Z,26.40
2018-10-15T15:50:44.591Z,26.40
2018-10-15T15:53:12.683Z,26.40
2018-10-15T15:55:40.835Z,26.40
2018-10-15T15:58:08.975Z,26.40
2018-10-15T16:00:37.083Z,26.40
2018-10-15T16:03:05.746Z,26.30
2018-10-15T16:05:33.847Z,26.30
2018-10-15T16:08:02.635Z,26.30
2018-10-15T16:10:30.783Z,26.20
2018-10-15T16:12:58.987Z,26.20
2018-10-15T16:15:27.112Z,26.20
2018-10-15T16:17:55.207Z,26.20
2018-10-15T16:20:23.360Z,26.20
2018-10-15T16:22:51.495Z,26.10
2018-10-15T16:25:19.603Z,26.10
2018-10-15T16:27:48.778Z,26.10
2018-10-15T16:30:16.967Z,26.10
2018-10-15T16:32:45.098Z,26.00
2018-10-15T16:35:13.203Z,26.00
2018-10-15T16:37:42.570Z,26.00
2018-10-15T16:40:16.069Z,25.90
2018-10-15T16:42:44.143Z,25.90
2018-10-15T16:45:13.090Z,25.90
2018-10-15T16:47:42.003Z,25.80
2018-10-15T16:50:12.226Z,25.80
2018-10-15T16:52:40.437Z,25.70
2018-10-15T16:55:11.351Z,25.60
2018-10-15T16:57:40.771Z,25.60
2018-10-15T17:00:09.709Z,25.50
2018-10-15T17:02:39.447Z,25.40
2018-10-15T17:05:08.927Z,25.30
2018-10-15T17:07:37.457Z,25.30
2018-10-15T17:10:07.076Z,25.20
2018-10-15T17:12:35.167Z,25.20
2018-10-15T17:15:03.266Z,25.10
2018-10-15T17:17:31.920Z,25.10
2018-10-15T17:20:00.202Z,25.00
2018-10-15T17:22:28.709Z,25.00
2018-10-15T17:25:01.504Z,24.90
2018-10-15T17:27:30.360Z,24.90
2018-10-15T17:30:06.500Z,24.80
2018-10-15T17:32:35.450Z,24.70
2018-10-15T17:35:04.272Z,24.70
2018-10-15T17:37:33.740Z,24.60
2018-10-15T17:40:02.335Z,24.50
2018-10-15T17:42:32.373Z,24.40
2018-10-15T17:45:01.000Z,24.30
2018-10-15T17:47:29.614Z,24.30
2018-10-15T17:50:00.338Z,24.30
2018-10-15T17:52:29.150Z,24.20
2018-10-15T17:55:04.005Z,24.10
2018-10-15T17:57:33.170Z,24.10
2018-10-15T18:00:03.322Z,24.00
2018-10-15T18:02:35.576Z,23.90
2018-10-15T18:05:06.403Z,23.80
2018-10-15T18:07:35.187Z,23.80
2018-10-15T18:10:05.506Z,23.70
2018-10-15T18:14:03.321Z,23.60
2018-10-15T18:16:33.281Z,23.60
2018-10-15T18:19:01.656Z,23.10
2018-10-15T18:21:31.220Z,23.10
2018-10-15T18:23:59.853Z,23.10
2018-10-15T18:26:28.260Z,23.10
2018-10-15T18:28:56.550Z,23.10
2018-10-15T18:31:24.828Z,23.10
2018-10-15T18:33:53.488Z,23.00
2018-10-15T18:36:28.763Z,23.00
2018-10-15T18:38:57.131Z,22.90
2018-10-15T18:41:25.364Z,22.90
2018-10-15T18:43:53.494Z,22.80
2018-10-15T18:46:21.611Z,22.80
2018-10-15T18:48:49.723Z,22.70
2018-10-15T18:51:17.843Z,22.70
2018-10-15T18:53:46.290Z,22.60
2018-10-15T18:56:14.416Z,22.60
2018-10-15T18:58:42.512Z,22.30
2018-10-15T19:01:10.683Z,22.30
2018-10-15T19:03:38.739Z,22.30
2018-10-15T19:06:06.828Z,22.30
2018-10-15T19:08:35.000Z,22.30
2018-10-15T19:11:03.153Z,22.20
2018-10-15T19:13:31.346Z,22.20
2018-10-15T19:15:59.463Z,22.10
2018-10-15T19:18:27.641Z,22.10
2018-10-15T19:20:55.747Z,22.00
2018-10-15T19:23:23.879Z,21.90
2018-10-15T19:25:52.002Z,21.90
2018-10-15T19:28:20.176Z,21.80
2018-10-15T19:30:48.299Z,21.70
2018-10-15T19:33:16.446Z,21.40
2018-10-15T19:35:44.552Z,21.30
2018-10-15T19:38:12.658Z,21.30
2018-10-15T19:40:40.798Z,21.30
2018-10-15T19:43:08.892Z,21.40
2018-10-15T19:45:37.005Z,21.40
2018-10-15T19:48:05.124Z,21.40
2018-10-15T19:50:33.222Z,21.40
2018-10-15T19:53:01.353Z,21.40
2018-10-15T19:55:29.458Z,21.30
2018-10-15T19:57:57.541Z,21.30
2018-10-15T20:00:25.666Z,21.30
2018-10-15T20:02:53.791Z,21.30
2018-10-15T20:05:21.927Z,21.20
2018-10-15T20:07:50.111Z,21.20
2018-10-15T20:10:18.747Z,21.20
2018-10-15T20:12:47.113Z,21.10
2018-10-15T20:15:15.208Z,21.00
2018-10-15T20:17:43.563Z,20.90
2018-10-15T20:20:12.888Z,20.90
2018-10-15T20:22:42.820Z,21.00
2018-10-15T20:25:12.231Z,21.00
2018-10-15T20:27:41.176Z,21.00
2018-10-15T20:30:10.497Z,21.00
2018-10-15T20:32:38.619Z,21.00
2018-10-15T20:35:07.981Z,21.00
2018-10-15T20:37:36.055Z,21.00
2018-10-15T20:40:04.499Z,20.90
2018-10-15T20:42:32.663Z,20.90
2018-10-15T20:45:00.753Z,20.90
2018-10-15T20:47:28.890Z,20.90
2018-10-15T20:49:57.402Z,20.80
2018-10-15T20:52:25.508Z,20.80
2018-10-15T20:54:53.612Z,20.80
2018-10-15T20:57:21.847Z,20.80
2018-10-15T20:59:50.119Z,20.80
2018-10-15T21:02:18.628Z,20.80
2018-10-15T21:04:47.811Z,20.80
2018-10-15T21:07:16.143Z,20.80
2018-10-15T21:09:44.310Z,20.70
2018-10-15T21:12:12.799Z,20.70
2018-10-15T21:14:40.923Z,20.70
2018-10-15T21:17:09.073Z,20.70
2018-10-15T21:19:37.170Z,20.60
2018-10-15T21:22:05.292Z,20.60
2018-10-15T21:24:33.411Z,20.60
2018-10-15T21:27:01.534Z,20.60
2018-10-15T21:29:29.655Z,20.50
2018-10-15T21:31:57.770Z,20.50
2018-10-15T21:34:25.979Z,20.30
2018-10-15T21:36:54.113Z,20.30
2018-10-15T21:39:22.336Z,20.30
2018-10-15T21:41:50.490Z,20.40
2018-10-15T21:44:18.599Z,20.40
2018-10-15T21:46:46.701Z,20.40
2018-10-15T21:49:14.793Z,20.30
2018-10-15T21:51:43.221Z,20.30
2018-10-15T21:54:11.723Z,20.30
2018-10-15T21:56:40.197Z,20.20
2018-10-15T21:59:08.997Z,20.20
2018-10-15T22:01:37.361Z,20.20
2018-10-15T22:04:06.011Z,20.10
2018-10-15T22:06:34.358Z,20.20
2018-10-15T22:09:02.926Z,20.10
2018-10-15T22:11:31.231Z,20.00
2018-10-15T22:13:59.684Z,20.00
2018-10-15T22:16:29.988Z,20.00
2018-10-15T22:18:58.363Z,19.90
2018-10-15T22:21:26.903Z,19.90
2018-10-15T22:23:55.307Z,19.90
2018-10-15T22:26:23.379Z,19.80
2018-10-15T22:28:51.699Z,19.80
2018-10-15T22:31:20.157Z,19.70
2018-10-15T22:33:48.242Z,19.70
2018-10-15T22:36:16.367Z,19.60
2018-10-15T22:38:44.461Z,19.60
2018-10-15T22:41:12.556Z,19.60
2018-10-15T22:43:40.654Z,19.50
2018-10-15T22:46:08.775Z,19.50
2018-10-15T22:48:37.011Z,19.50
2018-10-15T22:51:05.596Z,19.40
2018-10-15T22:53:34.037Z,19.40
2018-10-15T22:56:02.776Z,19.40
2018-10-15T22:58:30.887Z,19.40
2018-10-15T23:00:59.278Z,19.40
2018-10-15T23:03:27.703Z,19.40
2018-10-15T23:05:56.224Z,19.30
2018-10-15T23:08:25.470Z,19.30
2018-10-15T23:10:54.409Z,19.30
2018-10-15T23:13:22.638Z,19.30
2018-10-15T23:15:51.031Z,19.30
2018-10-15T23:18:19.318Z,19.20
2018-10-15T23:20:47.910Z,19.20
2018-10-15T23:23:16.382Z,19.20
2018-10-15T23:25:45.033Z,19.20
2018-10-15T23:28:13.324Z,19.20
2018-10-15T23:30:41.753Z,19.10
2018-10-15T23:33:10.097Z,19.10
2018-10-15T23:35:38.320Z,19.10
2018-10-15T23:38:06.763Z,19.10
2018-10-15T23:40:35.054Z,19.00
2018-10-15T23:43:03.421Z,18.90
2018-10-15T23:45:31.519Z,18.90
2018-10-15T23:47:59.623Z,18.90
2018-10-15T23:50:28.067Z,18.90
2018-10-15T23:52:56.457Z,18.90
2018-10-15T23:55:24.646Z,18.90
2018-10-15T23:57:52.959Z,18.80
